Crookhaven, Ireland
Current Conditions -  °F | °C
As of 9:30 AM on Friday 28 Nov 2014 (Local Time) from EIKY Reporting Station
Overcast Overcast  
Wind Chill: 54°   Ceiling: 1500
Heat Index: 54°   Visibility: 6mi
Dew Point: 50°   Wind: 13mph
Humidity: 88%   Direction: 90°E
Pressure: 29.38"   Gusts: NA
Location:  51.47°N, 9.73°W
Report Text: EIKY 280830Z 09011KT 9999 BKN015 OVC020 12/10 Q0995
Loading
Personal Weather Stations






























Interactive Weather Map New forecast layout! Learn more

10-Day Weather Forecast

Advertisements
Track Severe Weather on mobile